createdAt,value
2022-09-03T00:00:06.317Z,22.16
2022-09-03T00:02:46.473Z,22.17
2022-09-03T00:05:19.212Z,22.16
2022-09-03T00:07:57.942Z,22.15
2022-09-03T00:10:41.640Z,22.15
2022-09-03T00:13:08.770Z,22.15
2022-09-03T00:15:36.388Z,22.14
2022-09-03T00:18:07.727Z,22.13
2022-09-03T00:20:41.636Z,22.14
2022-09-03T00:23:10.580Z,22.12
2022-09-03T00:25:50.770Z,22.12
2022-09-03T00:28:30.501Z,22.12
2022-09-03T00:31:29.227Z,22.10
2022-09-03T00:34:03.273Z,22.11
2022-09-03T00:36:42.432Z,22.09
2022-09-03T00:39:14.419Z,22.09
2022-09-03T00:42:10.142Z,22.08
2022-09-03T00:44:55.848Z,22.06
2022-09-03T00:47:50.036Z,22.06
2022-09-03T00:50:35.467Z,22.06
2022-09-03T00:53:17.768Z,22.05
2022-09-03T00:55:49.796Z,22.05
2022-09-03T00:58:35.195Z,22.04
2022-09-03T01:01:15.490Z,22.04
2022-09-03T01:04:01.451Z,22.04
2022-09-03T01:06:54.298Z,22.02
2022-09-03T01:10:02.971Z,22.02
2022-09-03T01:13:13.570Z,22.02
2022-09-03T01:16:12.713Z,22.01
2022-09-03T01:19:18.387Z,21.99
2022-09-03T01:22:40.777Z,21.99
2022-09-03T01:25:41.281Z,21.97
2022-09-03T01:28:13.921Z,21.97
2022-09-03T01:30:42.962Z,21.97
2022-09-03T01:33:12.704Z,21.96
2022-09-03T01:35:49.232Z,21.95
2022-09-03T01:38:47.553Z,21.94
2022-09-03T01:41:45.064Z,21.95
2022-09-03T01:44:21.844Z,21.94
2022-09-03T01:46:51.423Z,21.93
2022-09-03T01:49:44.608Z,21.93
2022-09-03T01:52:18.165Z,21.93
2022-09-03T01:55:05.552Z,21.92
2022-09-03T01:57:46.228Z,21.90
2022-09-03T02:00:20.374Z,21.90
2022-09-03T02:02:49.299Z,21.90
2022-09-03T02:05:24.946Z,21.88
2022-09-03T02:08:03.035Z,21.88
2022-09-03T02:10:47.508Z,21.89
2022-09-03T02:13:18.716Z,21.88
2022-09-03T02:15:46.696Z,21.86
2022-09-03T02:18:23.292Z,21.88
2022-09-03T02:20:50.214Z,21.87
2022-09-03T02:23:17.143Z,21.86
2022-09-03T02:25:45.981Z,21.85
2022-09-03T02:28:17.185Z,21.86
2022-09-03T02:30:44.848Z,21.85
2022-09-03T02:33:11.778Z,21.85
2022-09-03T02:35:40.717Z,21.85
2022-09-03T02:38:21.394Z,21.84
2022-09-03T02:40:48.399Z,21.85
2022-09-03T02:43:18.973Z,21.83
2022-09-03T02:45:48.187Z,21.80
2022-09-03T02:48:17.467Z,21.79
2022-09-03T02:50:44.330Z,21.80
2022-09-03T02:53:11.206Z,21.80
2022-09-03T02:55:38.122Z,21.81
2022-09-03T02:58:07.101Z,21.80
2022-09-03T03:00:34.027Z,21.80
2022-09-03T03:03:00.930Z,21.79
2022-09-03T03:05:33.788Z,21.79
2022-09-03T03:08:01.634Z,21.79
2022-09-03T03:10:28.457Z,21.79
2022-09-03T03:12:55.538Z,21.77
2022-09-03T03:15:22.700Z,21.76
2022-09-03T03:17:49.673Z,21.77
2022-09-03T03:20:16.666Z,21.75
2022-09-03T03:22:43.535Z,21.74
2022-09-03T03:25:10.427Z,21.73
2022-09-03T03:27:40.020Z,21.72
2022-09-03T03:30:10.078Z,21.73
2022-09-03T03:32:37.784Z,21.72
2022-09-03T03:35:05.079Z,21.73
2022-09-03T03:37:32.244Z,21.73
2022-09-03T03:39:59.293Z,21.72
2022-09-03T03:42:26.225Z,21.72
2022-09-03T03:44:53.083Z,21.71
2022-09-03T03:47:19.951Z,21.70
2022-09-03T03:49:46.833Z,21.70
2022-09-03T03:52:13.791Z,21.70
2022-09-03T03:54:40.674Z,21.69
2022-09-03T03:57:07.555Z,21.70
2022-09-03T03:59:34.460Z,21.69
2022-09-03T04:02:01.383Z,21.67
2022-09-03T04:04:28.493Z,21.67
2022-09-03T04:06:55.356Z,21.67
2022-09-03T04:09:22.635Z,21.67
2022-09-03T04:11:51.031Z,21.64
2022-09-03T04:14:21.117Z,21.62
2022-09-03T04:16:47.954Z,21.63
2022-09-03T04:19:14.859Z,21.63
2022-09-03T04:21:41.731Z,21.62
2022-09-03T04:24:08.662Z,21.64
2022-09-03T04:26:35.617Z,21.62
2022-09-03T04:29:09.417Z,21.62
2022-09-03T04:31:37.006Z,21.62
2022-09-03T04:34:06.658Z,21.60
2022-09-03T04:36:35.274Z,21.62
2022-09-03T04:39:02.170Z,21.60
2022-09-03T04:41:30.071Z,21.60
2022-09-03T04:43:58.368Z,21.60
2022-09-03T04:46:26.847Z,21.59
2022-09-03T04:48:54.575Z,21.59
2022-09-03T04:51:27.425Z,21.58
2022-09-03T04:53:57.166Z,21.58
2022-09-03T04:56:25.989Z,21.57
2022-09-03T04:58:57.760Z,21.58
2022-09-03T05:01:26.064Z,21.58
2022-09-03T05:03:54.544Z,21.57
2022-09-03T05:06:21.431Z,21.56
2022-09-03T05:08:49.237Z,21.57
2022-09-03T05:11:17.356Z,21.56
2022-09-03T05:13:49.203Z,21.56
2022-09-03T05:16:16.175Z,21.56
2022-09-03T05:18:43.083Z,21.56
2022-09-03T05:21:11.444Z,21.55
2022-09-03T05:23:39.688Z,21.56
2022-09-03T05:26:11.235Z,21.55
2022-09-03T05:28:39.343Z,21.54
2022-09-03T05:31:10.939Z,21.55
2022-09-03T05:33:39.267Z,21.54
2022-09-03T05:36:07.758Z,21.53
2022-09-03T05:38:34.816Z,21.53
2022-09-03T05:41:04.630Z,21.53
2022-09-03T05:43:31.989Z,21.53
2022-09-03T05:46:02.018Z,21.52
2022-09-03T05:48:32.551Z,21.51
2022-09-03T05:51:10.584Z,21.51
2022-09-03T05:53:39.131Z,21.52
2022-09-03T05:56:07.730Z,21.51
2022-09-03T05:58:35.583Z,21.52
2022-09-03T06:01:13.925Z,21.50
2022-09-03T06:03:41.907Z,21.51
2022-09-03T06:06:08.890Z,21.50
2022-09-03T06:08:36.132Z,21.50
2022-09-03T06:11:06.393Z,21.48
2022-09-03T06:13:33.604Z,21.50
2022-09-03T06:16:01.620Z,21.50
2022-09-03T06:18:28.644Z,21.48
2022-09-03T06:20:56.613Z,21.49
2022-09-03T06:23:24.260Z,21.49
2022-09-03T06:26:05.037Z,21.48
2022-09-03T06:28:36.770Z,21.47
2022-09-03T06:31:05.383Z,21.48
2022-09-03T06:33:33.954Z,21.49
2022-09-03T06:36:03.754Z,21.47
2022-09-03T06:38:33.683Z,21.49
2022-09-03T06:41:03.626Z,21.48
2022-09-03T06:43:32.023Z,21.48
2022-09-03T06:46:03.374Z,21.47
2022-09-03T06:48:31.508Z,21.47
2022-09-03T06:51:05.711Z,21.48
2022-09-03T06:53:36.480Z,21.47
2022-09-03T06:56:06.288Z,21.48
2022-09-03T06:58:38.949Z,21.48
2022-09-03T07:01:07.833Z,21.49
2022-09-03T07:03:38.052Z,21.47
2022-09-03T07:06:09.139Z,21.48
2022-09-03T07:08:36.142Z,21.50
2022-09-03T07:11:06.279Z,21.50
2022-09-03T07:13:33.820Z,21.49
2022-09-03T07:16:01.839Z,21.51
2022-09-03T07:18:28.790Z,21.51
2022-09-03T07:21:03.207Z,21.51
2022-09-03T07:23:30.333Z,21.52
2022-09-03T07:25:58.081Z,21.53
2022-09-03T07:28:25.244Z,21.53
2022-09-03T07:30:53.031Z,21.53
2022-09-03T07:33:19.994Z,21.54
2022-09-03T07:35:47.361Z,21.54
2022-09-03T07:38:20.206Z,21.54
2022-09-03T07:40:47.449Z,21.54
2022-09-03T07:43:14.394Z,21.54
2022-09-03T07:45:41.531Z,21.55
2022-09-03T07:48:08.466Z,21.55
2022-09-03T07:50:39.455Z,21.56
2022-09-03T07:53:06.399Z,21.56
2022-09-03T07:55:33.938Z,21.56
2022-09-03T07:58:00.799Z,21.57
2022-09-03T08:00:28.648Z,21.56
2022-09-03T08:02:56.809Z,21.57
2022-09-03T08:05:23.739Z,21.58
2022-09-03T08:07:51.179Z,21.58
2022-09-03T08:10:18.152Z,21.59
2022-09-03T08:12:44.992Z,21.58
2022-09-03T08:15:11.873Z,21.59
2022-09-03T08:17:38.723Z,21.59
2022-09-03T08:20:05.866Z,21.60
2022-09-03T08:22:32.747Z,21.59
2022-09-03T08:25:00.695Z,21.61
2022-09-03T08:27:27.943Z,21.60
2022-09-03T08:29:55.213Z,21.61
2022-09-03T08:32:23.086Z,21.61
2022-09-03T08:34:50.995Z,21.63
2022-09-03T08:37:18.105Z,21.64
2022-09-03T08:39:45.584Z,21.65
2022-09-03T08:42:31.101Z,21.65
2022-09-03T08:45:02.843Z,21.66
2022-09-03T08:47:41.571Z,21.65
2022-09-03T08:50:24.408Z,21.65
2022-09-03T08:52:51.702Z,21.66
2022-09-03T08:55:23.838Z,21.67
2022-09-03T08:58:12.213Z,21.67
2022-09-03T09:01:03.276Z,21.67
2022-09-03T09:03:48.220Z,21.67
2022-09-03T09:06:17.885Z,21.69
2022-09-03T09:09:16.096Z,21.67
2022-09-03T09:12:09.988Z,21.69
2022-09-03T09:15:05.688Z,21.70
2022-09-03T09:17:56.390Z,21.70
2022-09-03T09:20:50.538Z,21.71
2022-09-03T09:23:26.166Z,21.73
2022-09-03T09:25:53.121Z,21.71
2022-09-03T09:28:22.308Z,21.73
2022-09-03T09:30:51.695Z,21.73
2022-09-03T09:33:19.803Z,21.72
2022-09-03T09:35:46.887Z,21.72
2022-09-03T09:38:13.861Z,21.73
2022-09-03T09:40:44.798Z,21.73
2022-09-03T09:43:16.514Z,21.73
2022-09-03T09:45:44.890Z,21.73
2022-09-03T09:48:17.440Z,21.74
2022-09-03T09:50:44.370Z,21.74
2022-09-03T09:53:18.188Z,21.75
2022-09-03T09:56:03.104Z,21.76
2022-09-03T09:58:33.247Z,21.76
2022-09-03T10:01:14.935Z,21.73
2022-09-03T10:03:49.363Z,21.76
2022-09-03T10:06:34.890Z,21.75
2022-09-03T10:09:18.117Z,21.76
2022-09-03T10:12:14.711Z,21.76
2022-09-03T10:14:56.057Z,21.75
2022-09-03T10:17:44.633Z,21.75
2022-09-03T10:20:28.061Z,21.76
2022-09-03T10:22:57.557Z,21.76
2022-09-03T10:25:41.824Z,21.75
2022-09-03T10:28:10.016Z,21.76
2022-09-03T10:30:48.953Z,21.76
2022-09-03T10:33:20.404Z,21.78
2022-09-03T10:35:53.180Z,21.78
2022-09-03T10:38:37.029Z,21.79
2022-09-03T10:41:32.814Z,21.79
2022-09-03T10:44:49.144Z,21.79
2022-09-03T10:47:38.729Z,21.79
2022-09-03T10:50:08.821Z,21.80
2022-09-03T10:52:41.440Z,21.78
2022-09-03T10:55:44.445Z,21.78
2022-09-03T10:58:27.659Z,21.77
2022-09-03T11:00:58.418Z,21.77
2022-09-03T11:03:49.951Z,21.78
2022-09-03T11:06:42.965Z,21.79
2022-09-03T11:09:17.985Z,21.78
2022-09-03T11:11:47.900Z,21.78
2022-09-03T11:14:16.386Z,21.78
2022-09-03T11:16:49.042Z,21.80
2022-09-03T11:19:20.450Z,21.78
2022-09-03T11:21:47.713Z,21.80
2022-09-03T11:24:24.581Z,21.81
2022-09-03T11:26:57.917Z,21.81
2022-09-03T11:29:39.190Z,21.82
2022-09-03T11:32:11.926Z,21.81
2022-09-03T11:34:52.322Z,21.81
2022-09-03T11:37:24.890Z,21.81
2022-09-03T11:39:59.162Z,21.81
2022-09-03T11:42:30.493Z,21.82
2022-09-03T11:45:20.581Z,21.82
2022-09-03T11:47:47.821Z,21.83
2022-09-03T11:50:24.818Z,21.81
2022-09-03T11:52:54.414Z,21.83
2022-09-03T11:55:52.068Z,21.82
2022-09-03T11:58:25.590Z,21.82
2022-09-03T12:00:54.286Z,21.83
2022-09-03T12:03:28.686Z,21.83
2022-09-03T12:05:58.139Z,21.84
2022-09-03T12:08:43.793Z,21.84
2022-09-03T12:11:48.680Z,21.84
2022-09-03T12:14:36.704Z,21.85
2022-09-03T12:17:08.892Z,21.85
2022-09-03T12:19:53.263Z,21.86
2022-09-03T12:22:22.298Z,21.86
2022-09-03T12:24:50.943Z,21.86
2022-09-03T12:27:26.283Z,21.87
2022-09-03T12:30:00.393Z,21.89
2022-09-03T12:32:38.485Z,21.89
2022-09-03T12:38:10.630Z,21.90
2022-09-03T12:41:23.629Z,21.90
2022-09-03T12:43:38.291Z,21.92
2022-09-03T12:46:13.731Z,21.93
2022-09-03T12:48:47.152Z,21.93
2022-09-03T12:54:01.522Z,21.94
2022-09-03T12:56:29.189Z,21.94
2022-09-03T12:59:01.770Z,21.94
2022-09-03T13:01:31.522Z,21.94
2022-09-03T13:04:12.784Z,21.93
2022-09-03T13:06:45.517Z,21.94
2022-09-03T13:09:12.390Z,21.93
2022-09-03T13:11:39.480Z,21.94
2022-09-03T13:14:11.403Z,21.95
2022-09-03T13:16:38.268Z,21.96
2022-09-03T13:19:19.615Z,21.97
2022-09-03T13:22:09.489Z,22.00
2022-09-03T13:24:44.991Z,22.01
2022-09-03T13:27:30.163Z,22.03
2022-09-03T13:30:14.648Z,22.04
2022-09-03T13:32:44.256Z,22.05
2022-09-03T13:35:37.340Z,22.07
2022-09-03T13:38:19.318Z,22.08
2022-09-03T13:40:50.102Z,22.09
2022-09-03T13:43:33.785Z,22.10
2022-09-03T13:46:37.296Z,22.11
2022-09-03T13:49:45.616Z,22.13
2022-09-03T13:52:22.562Z,22.13
2022-09-03T13:54:57.783Z,22.15
2022-09-03T13:58:01.691Z,22.16
2022-09-03T14:00:40.460Z,22.16
2022-09-03T14:03:32.354Z,22.16
2022-09-03T14:06:22.092Z,22.17
2022-09-03T14:08:58.905Z,22.18
2022-09-03T14:11:33.106Z,22.17
2022-09-03T14:14:20.821Z,22.18
2022-09-03T14:16:55.624Z,22.17
2022-09-03T14:19:47.408Z,22.18
2022-09-03T14:22:26.238Z,22.18
2022-09-03T14:25:09.765Z,22.15
2022-09-03T14:27:36.863Z,22.17
2022-09-03T14:30:17.874Z,22.17
2022-09-03T14:33:15.762Z,22.17
2022-09-03T14:35:51.667Z,22.18
2022-09-03T14:38:35.168Z,22.16
2022-09-03T14:41:17.043Z,22.18
2022-09-03T14:43:54.013Z,22.17
2022-09-03T14:46:43.038Z,22.17
2022-09-03T14:49:31.428Z,22.18
2022-09-03T14:52:25.407Z,22.18
2022-09-03T14:55:26.228Z,22.17
2022-09-03T14:58:40.688Z,22.18
2022-09-03T15:01:25.140Z,22.17
2022-09-03T15:04:29.200Z,22.18
2022-09-03T15:07:33.435Z,22.17
2022-09-03T15:10:10.516Z,22.17
2022-09-03T15:12:53.061Z,22.18
2022-09-03T15:15:22.045Z,22.18
2022-09-03T15:18:00.721Z,22.16
2022-09-03T15:20:47.079Z,22.18
2022-09-03T15:23:52.437Z,22.16
2022-09-03T15:26:23.257Z,22.16
2022-09-03T15:28:55.948Z,22.18
2022-09-03T15:31:40.789Z,22.18
2022-09-03T15:34:20.643Z,22.17
2022-09-03T15:36:51.042Z,22.18
2022-09-03T15:39:25.800Z,22.17
2022-09-03T15:41:57.266Z,22.17
2022-09-03T15:44:24.459Z,22.16
2022-09-03T15:46:57.144Z,22.16
2022-09-03T15:49:45.002Z,22.17
2022-09-03T15:52:40.603Z,22.17
2022-09-03T15:55:12.142Z,22.18
2022-09-03T15:58:19.552Z,22.17
2022-09-03T16:00:51.874Z,22.18
2022-09-03T16:03:32.222Z,22.17
2022-09-03T16:06:02.649Z,22.17
2022-09-03T16:08:34.451Z,22.16
2022-09-03T16:11:10.316Z,22.15
2022-09-03T16:13:46.036Z,22.14
2022-09-03T16:16:16.586Z,22.12
2022-09-03T16:19:05.247Z,22.11
2022-09-03T16:21:43.510Z,22.11
2022-09-03T16:24:14.607Z,22.10
2022-09-03T16:26:57.079Z,22.11
2022-09-03T16:29:28.506Z,22.10
2022-09-03T16:32:20.235Z,22.11
2022-09-03T16:34:53.435Z,22.09
2022-09-03T16:37:25.857Z,22.10
2022-09-03T16:40:24.493Z,22.11
2022-09-03T16:43:29.992Z,22.10
2022-09-03T16:46:19.383Z,22.09
2022-09-03T16:49:05.031Z,22.10
2022-09-03T16:51:53.022Z,22.09
2022-09-03T16:54:28.994Z,22.09
2022-09-03T16:57:54.939Z,22.08
2022-09-03T17:00:22.059Z,22.07
2022-09-03T17:03:06.847Z,22.07
2022-09-03T17:05:52.167Z,22.07
2022-09-03T17:08:43.457Z,22.06
2022-09-03T17:11:10.221Z,22.07
2022-09-03T17:13:43.096Z,22.06
2022-09-03T17:16:47.703Z,22.06
2022-09-03T17:19:19.121Z,22.06
2022-09-03T17:21:51.541Z,22.06
2022-09-03T17:24:23.886Z,22.05
2022-09-03T17:27:09.169Z,22.04
2022-09-03T17:29:52.168Z,22.01
2022-09-03T17:32:37.324Z,22.00
2022-09-03T17:35:15.149Z,21.98
2022-09-03T17:37:44.949Z,21.97
2022-09-03T17:40:29.194Z,21.99
2022-09-03T17:43:07.895Z,21.96
2022-09-03T17:45:49.177Z,21.98
2022-09-03T17:48:36.980Z,21.99
2022-09-03T17:51:13.174Z,21.99
2022-09-03T17:53:49.390Z,21.99
2022-09-03T17:56:29.725Z,22.00
2022-09-03T17:59:22.775Z,22.00
2022-09-03T18:01:56.130Z,21.99
2022-09-03T18:04:29.212Z,21.98
2022-09-03T18:07:08.626Z,21.99
2022-09-03T18:09:42.289Z,21.98
2022-09-03T18:12:39.143Z,21.99
2022-09-03T18:15:18.929Z,21.99
2022-09-03T18:18:03.716Z,22.01
2022-09-03T18:21:08.566Z,22.02
2022-09-03T18:24:38.136Z,22.01
2022-09-03T18:27:46.797Z,22.01
2022-09-03T18:30:33.300Z,22.00
2022-09-03T18:33:18.913Z,22.00
2022-09-03T18:36:04.770Z,21.99
2022-09-03T18:38:52.198Z,22.00
2022-09-03T18:42:01.523Z,21.99
2022-09-03T18:45:22.347Z,21.99
2022-09-03T18:48:20.645Z,21.97
2022-09-03T18:51:43.834Z,21.96
2022-09-03T18:55:07.453Z,21.95
2022-09-03T18:58:19.713Z,21.95
2022-09-03T19:01:28.751Z,21.94
2022-09-03T19:04:38.353Z,21.93
2022-09-03T19:07:29.816Z,21.90
2022-09-03T19:10:17.390Z,21.91
2022-09-03T19:13:15.135Z,21.89
2022-09-03T19:16:06.017Z,21.89
2022-09-03T19:19:36.610Z,21.88
2022-09-03T19:22:28.885Z,21.87
2022-09-03T19:25:33.458Z,21.87
2022-09-03T19:28:24.913Z,21.87
2022-09-03T19:31:29.950Z,21.86
2022-09-03T19:34:34.404Z,21.85
2022-09-03T19:37:28.440Z,21.84
2022-09-03T19:40:35.607Z,21.83
2022-09-03T19:43:43.890Z,21.83
2022-09-03T19:46:45.045Z,21.81
2022-09-03T19:49:48.999Z,21.80
2022-09-03T19:52:43.266Z,21.79
2022-09-03T19:55:38.912Z,21.79
2022-09-03T19:58:41.958Z,21.79
2022-09-03T20:01:28.487Z,21.79
2022-09-03T20:04:15.224Z,21.78
2022-09-03T20:07:00.418Z,21.77
2022-09-03T20:09:48.943Z,21.77
2022-09-03T20:12:17.529Z,21.76
2022-09-03T20:14:44.456Z,21.75
2022-09-03T20:17:13.992Z,21.75
2022-09-03T20:19:55.752Z,21.75
2022-09-03T20:22:57.888Z,21.74
2022-09-03T20:26:10.331Z,21.73
2022-09-03T20:28:46.310Z,21.73
2022-09-03T20:31:28.322Z,21.71
2022-09-03T20:34:32.370Z,21.71
2022-09-03T20:37:04.945Z,21.71
2022-09-03T20:39:40.285Z,21.70
2022-09-03T20:42:33.342Z,21.70
2022-09-03T20:45:15.231Z,21.70
2022-09-03T20:47:48.528Z,21.69
2022-09-03T20:50:26.978Z,21.69
2022-09-03T20:53:25.999Z,21.69
2022-09-03T20:55:57.559Z,21.67
2022-09-03T20:58:59.073Z,21.67
2022-09-03T21:01:47.454Z,21.66
2022-09-03T21:04:14.326Z,21.64
2022-09-03T21:06:46.938Z,21.62
2022-09-03T21:09:39.624Z,21.60
2022-09-03T21:12:18.889Z,21.58
2022-09-03T21:14:59.002Z,21.56
2022-09-03T21:17:30.035Z,21.54
2022-09-03T21:20:18.392Z,21.53
2022-09-03T21:23:13.151Z,21.52
2022-09-03T21:25:43.137Z,21.50
2022-09-03T21:28:17.928Z,21.49
2022-09-03T21:30:48.428Z,21.47
2022-09-03T21:33:24.236Z,21.46
2022-09-03T21:36:00.254Z,21.45
2022-09-03T21:38:33.624Z,21.45
2022-09-03T21:41:07.873Z,21.44
2022-09-03T21:44:06.284Z,21.42
2022-09-03T21:47:06.564Z,21.40
2022-09-03T21:49:43.213Z,21.39
2022-09-03T21:52:13.459Z,21.39
2022-09-03T21:54:40.428Z,21.38
2022-09-03T21:57:22.355Z,21.39
2022-09-03T22:00:10.086Z,21.38
2022-09-03T22:02:37.060Z,21.37
2022-09-03T22:05:04.192Z,21.35
2022-09-03T22:08:04.976Z,21.38
2022-09-03T22:14:10.968Z,21.34
2022-09-03T22:16:39.615Z,21.33
2022-09-03T22:19:09.314Z,21.32
2022-09-03T22:21:36.770Z,21.32
2022-09-03T22:24:19.230Z,21.31
2022-09-03T22:27:04.405Z,21.29
2022-09-03T22:29:37.282Z,21.30
2022-09-03T22:32:25.260Z,21.29
2022-09-03T22:35:02.977Z,21.29
2022-09-03T22:37:45.532Z,21.28
2022-09-03T22:40:38.518Z,21.29
2022-09-03T22:43:27.633Z,21.29
2022-09-03T22:46:09.565Z,21.28
2022-09-03T22:48:41.293Z,21.28
2022-09-03T22:51:09.388Z,21.29
2022-09-03T22:53:48.368Z,21.28
2022-09-03T22:56:22.391Z,21.28
2022-09-03T22:59:11.726Z,21.25
2022-09-03T23:01:44.819Z,21.25
2022-09-03T23:04:19.870Z,21.25
2022-09-03T23:06:55.688Z,21.25
2022-09-03T23:09:25.087Z,21.24
2022-09-03T23:11:54.592Z,21.22
2022-09-03T23:14:48.900Z,21.23
2022-09-03T23:20:21.755Z,21.22
2022-09-03T23:23:04.163Z,21.23
2022-09-03T23:25:42.242Z,21.22
2022-09-03T23:28:38.340Z,21.22
2022-09-03T23:31:22.250Z,21.22
2022-09-03T23:33:52.280Z,21.21
2022-09-03T23:37:01.303Z,21.21
2022-09-03T23:40:05.370Z,21.21
2022-09-03T23:42:42.341Z,21.21
2022-09-03T23:45:36.854Z,21.20
2022-09-03T23:48:30.218Z,21.19
2022-09-03T23:51:00.011Z,21.18
2022-09-03T23:53:51.216Z,21.16
2022-09-03T23:56:49.759Z,21.17
2022-09-03T23:59:40.203Z,21.16
